Time;durP1;ratioP1;P1;durP2;ratioP2;P2;SDS_P1;SDS_P2;PMS_P1;PMS_P2;Temp;Humidity;BMP_temperature;BMP_pressure;BME280_temperature;BME280_humidity;BME280_pressure;Samples;Min_cycle;Max_cycle;Signal;HPM_P1;HPM_P2
2021/06/09 00:09:10;;;;;;;12.35;10.90;;;;;;;16.95;97.49;99284.35;1852935;75;21914;-49
2021/06/09 00:11:36;;;;;;;11.53;9.68;;;;;;;16.89;97.76;99293.05;1826223;77;21521;-51
2021/06/09 00:14:04;;;;;;;11.40;10.00;;;;;;;16.87;97.70;99292.28;1825394;77;21505;-50
2021/06/09 00:16:31;;;;;;;11.90;10.20;;;;;;;16.85;97.72;99286.12;1826990;76;20931;-50
2021/06/09 00:18:58;;;;;;;10.05;8.63;;;;;;;16.83;97.84;99287.61;1827910;77;21489;-53
2021/06/09 00:21:26;;;;;;;9.05;8.13;;;;;;;16.82;97.79;99289.08;1826057;77;21449;-52
2021/06/09 00:23:53;;;;;;;8.90;7.90;;;;;;;16.79;97.59;99286.13;1827936;77;20920;-59
2021/06/09 00:28:46;;;;;;;8.90;7.92;;;;;;;16.83;97.49;99270.37;1854313;75;23119;-50
2021/06/09 00:31:13;;;;;;;9.18;7.85;;;;;;;16.75;97.45;99269.67;1830669;76;20944;-50
2021/06/09 00:33:40;;;;;;;8.90;7.28;;;;;;;16.72;97.48;99276.26;1819756;77;21776;-55
2021/06/09 00:36:07;;;;;;;10.15;7.00;;;;;;;16.70;97.33;99270.02;1825162;76;21394;-57
2021/06/09 00:38:34;;;;;;;10.93;7.22;;;;;;;16.67;97.04;99264.84;1821074;77;20956;-62
2021/06/09 00:41:01;;;;;;;11.35;7.60;;;;;;;16.68;96.96;99274.74;1821740;77;21476;-60
2021/06/09 00:43:32;;;;;;;9.08;7.80;;;;;;;16.66;96.87;99268.53;1822574;76;21510;-64
2021/06/09 00:46:06;;;;;;;11.70;7.50;;;;;;;16.66;96.80;99267.67;1823772;76;21119;-60
2021/06/09 00:48:33;;;;;;;8.53;7.47;;;;;;;16.64;96.81;99266.45;1822715;76;21997;-61
2021/06/09 00:51:04;;;;;;;8.70;7.37;;;;;;;16.63;96.74;99255.20;1822992;76;20963;-60
2021/06/09 00:53:35;;;;;;;7.47;6.83;;;;;;;16.63;96.63;99263.36;1824241;76;20896;-61
2021/06/09 00:56:06;;;;;;;;;;;;;;;16.62;96.51;99254.83;1825421;76;20908;-53
2021/06/09 00:58:33;;;;;;;7.90;7.10;;;;;;;16.63;96.24;99256.56;1821888;76;21152;-53
2021/06/09 01:01:01;;;;;;;10.23;8.05;;;;;;;16.63;96.27;99255.20;1821917;76;21000;-57
2021/06/09 01:03:27;;;;;;;8.13;7.08;;;;;;;16.62;96.23;99252.58;1826558;76;20944;-55
2021/06/09 01:05:54;;;;;;;8.75;7.87;;;;;;;16.61;96.05;99250.86;1821220;76;21410;-54
2021/06/09 01:08:21;;;;;;;8.30;7.50;;;;;;;16.61;96.07;99254.44;1823149;76;20932;-53
2021/06/09 01:10:49;;;;;;;10.65;7.53;;;;;;;16.58;95.98;99257.44;1821764;76;21092;-53
2021/06/09 01:13:22;;;;;;;8.80;7.97;;;;;;;16.57;95.94;99252.98;1819928;76;21451;-52
2021/06/09 01:15:49;;;;;;;9.93;7.97;;;;;;;16.55;95.92;99245.42;1825352;76;20908;-63
2021/06/09 01:18:18;;;;;;;8.60;7.58;;;;;;;16.56;96.01;99262.13;1822117;76;20881;-62
2021/06/09 01:20:45;;;;;;;14.15;8.48;;;;;;;16.54;96.08;99250.51;1822238;76;20905;-49
2021/06/09 01:23:11;;;;;;;9.18;8.28;;;;;;;16.52;96.20;99259.31;1820761;76;21734;-51
2021/06/09 01:25:38;;;;;;;8.50;7.58;;;;;;;16.50;96.34;99255.33;1828365;76;20944;-52
2021/06/09 01:28:07;;;;;;;8.93;8.13;;;;;;;16.49;96.40;99258.19;1823579;75;21342;-52
2021/06/09 01:30:35;;;;;;;9.35;8.10;;;;;;;16.48;96.52;99270.07;1824015;75;20913;-51
2021/06/09 01:33:02;;;;;;;9.13;8.33;;;;;;;16.47;96.61;99266.98;1825603;75;21027;-51
2021/06/09 01:35:29;;;;;;;8.75;7.87;;;;;;;16.46;96.72;99270.71;1828686;75;21116;-53
2021/06/09 01:37:56;;;;;;;9.18;8.30;;;;;;;16.45;96.83;99277.11;1828251;75;20885;-53
2021/06/09 01:40:24;;;;;;;9.20;8.40;;;;;;;16.43;96.94;99277.75;1828879;75;20940;-49
2021/06/09 01:42:51;;;;;;;10.45;9.38;;;;;;;16.40;97.15;99276.13;1827346;76;21415;-49
2021/06/09 01:45:24;;;;;;;9.60;8.38;;;;;;;16.39;97.36;99272.18;1829684;76;20918;-50
2021/06/09 01:47:52;;;;;;;9.43;7.97;;;;;;;16.37;97.67;99278.26;1824584;77;21052;-54
2021/06/09 01:50:19;;;;;;;8.48;7.67;;;;;;;16.34;98.02;99278.49;1825606;77;20905;-53
2021/06/09 01:52:47;;;;;;;10.30;9.23;;;;;;;16.31;98.38;99281.48;1825301;77;21397;-56
2021/06/09 01:55:15;;;;;;;9.48;8.38;;;;;;;16.29;98.54;99279.36;1824264;76;21688;-56
2021/06/09 01:57:42;;;;;;;9.38;8.40;;;;;;;16.27;98.82;99273.19;1825303;77;21025;-57
2021/06/09 02:00:17;;;;;;;9.33;8.38;;;;;;;16.25;99.18;99273.33;1824569;76;21037;-56
2021/06/09 02:02:44;;;;;;;10.13;9.03;;;;;;;16.24;99.36;99277.91;1823375;77;20920;-59
2021/06/09 02:05:11;;;;;;;15.30;10.25;;;;;;;16.23;99.56;99272.06;1824828;76;20909;-56
2021/06/09 02:07:44;;;;;;;10.58;9.58;;;;;;;16.26;99.83;99278.27;1824766;77;20947;-56
2021/06/09 02:10:16;;;;;;;10.58;9.55;;;;;;;16.33;100.00;99280.35;1826390;76;21464;-53
2021/06/09 02:12:50;;;;;;;12.82;9.75;;;;;;;16.46;100.00;99280.23;1824072;77;21131;-55
2021/06/09 02:15:19;;;;;;;11.00;9.75;;;;;;;16.63;100.00;99284.28;1828982;77;20976;-52
2021/06/09 02:18:12;;;;;;;10.53;9.50;;;;;;;16.82;99.45;99280.91;1826385;77;21056;-52
2021/06/09 02:20:44;;;;;;;10.93;9.20;;;;;;;17.00;98.99;99276.66;1785456;77;20937;-53
2021/06/09 02:23:20;;;;;;;11.48;8.90;;;;;;;17.20;97.86;99283.12;1756647;80;20947;-53
2021/06/09 02:25:51;;;;;;;11.50;8.50;;;;;;;17.36;96.80;99283.54;1784776;77;21325;-53
2021/06/09 02:28:19;;;;;;;11.97;8.60;;;;;;;17.51;96.19;99289.53;1783049;79;20946;-53
2021/06/09 02:30:46;;;;;;;11.63;8.63;;;;;;;17.68;95.27;99278.02;1780055;78;20903;-53
2021/06/09 02:33:14;;;;;;;9.68;8.70;;;;;;;17.87;94.44;99282.78;1782665;77;20914;-53
2021/06/09 02:35:43;;;;;;;8.95;7.55;;;;;;;18.03;92.89;99282.30;1783000;77;20954;-53
2021/06/09 02:38:10;;;;;;;8.53;7.72;;;;;;;18.18;92.42;99275.47;1781901;79;21052;-53
2021/06/09 02:40:39;;;;;;;8.88;7.92;;;;;;;18.40;91.31;99270.81;1787521;79;20954;-53
2021/06/09 02:43:06;;;;;;;11.90;6.80;;;;;;;18.64;89.99;99275.39;1785823;79;20950;-53
2021/06/09 02:45:33;;;;;;;8.73;7.10;;;;;;;18.79;88.60;99272.66;1781148;77;20950;-52
2021/06/09 02:48:04;;;;;;;8.30;7.22;;;;;;;18.90;87.37;99272.17;1783966;79;20930;-53
2021/06/09 02:50:31;;;;;;;9.45;7.20;;;;;;;19.00;86.91;99277.16;1753823;80;21728;-53
2021/06/09 02:53:14;;;;;;;8.10;7.08;;;;;;;19.01;86.39;99274.77;1752504;79;20892;-53
2021/06/09 02:56:04;;;;;;;10.48;7.10;;;;;;;18.87;85.55;99282.04;1785238;78;20959;-53
2021/06/09 02:59:15;;;;;;;8.68;7.37;;;;;;;18.61;86.07;99278.92;1783814;77;21411;-54
2021/06/09 03:02:04;;;;;;;10.68;7.80;;;;;;;18.46;86.85;99282.03;1781822;77;21483;-53
2021/06/09 03:04:48;;;;;;;11.48;7.47;;;;;;;18.62;86.93;99283.38;1783796;79;21871;-53
2021/06/09 03:07:28;;;;;;;8.95;7.55;;;;;;;18.60;86.78;99278.06;1781160;77;20941;-53
2021/06/09 03:10:11;;;;;;;8.83;7.92;;;;;;;18.42;86.79;99276.48;1779790;79;20957;-53
2021/06/09 03:12:52;;;;;;;9.93;7.72;;;;;;;18.28;87.87;99287.80;1780248;79;20942;-55
2021/06/09 03:15:29;;;;;;;8.77;7.90;;;;;;;18.31;87.94;99277.45;1779841;77;20910;-53
2021/06/09 03:18:05;;;;;;;9.33;7.80;;;;;;;18.29;88.21;99290.39;1780696;78;21688;-53
2021/06/09 03:20:55;;;;;;;10.65;8.45;;;;;;;18.49;87.96;99286.38;1783302;77;20928;-53
2021/06/09 03:23:52;;;;;;;12.63;8.70;;;;;;;18.74;87.54;99291.34;1783763;79;20934;-53
2021/06/09 03:26:26;;;;;;;10.85;7.60;;;;;;;19.05;85.99;99288.52;1780813;79;21455;-52
2021/06/09 03:29:19;;;;;;;7.72;7.03;;;;;;;19.30;85.36;99287.97;1758136;79;20908;-52
2021/06/09 03:31:50;;;;;;;8.83;8.00;;;;;;;19.63;83.41;99294.02;1781473;77;21152;-53
2021/06/09 03:34:21;;;;;;;8.20;6.58;;;;;;;19.92;82.43;99294.45;1780774;77;21467;-53
2021/06/09 03:36:48;;;;;;;8.50;7.35;;;;;;;20.18;80.98;99301.01;1781876;79;20899;-53
2021/06/09 03:39:17;;;;;;;7.70;7.00;;;;;;;20.38;80.12;99300.44;1781169;78;20926;-53
2021/06/09 03:41:47;;;;;;;7.75;6.95;;;;;;;20.51;78.56;99291.92;1756911;79;21430;-52
2021/06/09 03:44:16;;;;;;;8.18;7.37;;;;;;;20.70;78.22;99300.03;1780608;79;21132;-53
2021/06/09 03:46:43;;;;;;;8.73;7.40;;;;;;;20.95;77.22;99297.58;1780386;79;20894;-53
2021/06/09 03:49:14;;;;;;;10.30;6.75;;;;;;;21.22;76.33;99308.50;1780202;77;20918;-52
2021/06/09 03:51:42;;;;;;;9.38;7.45;;;;;;;21.32;75.04;99309.32;1780335;79;20938;-52
2021/06/09 03:54:09;;;;;;;8.00;7.20;;;;;;;21.54;74.67;99316.20;1783819;79;21371;-52
2021/06/09 03:56:39;;;;;;;7.20;6.45;;;;;;;21.73;72.64;99311.03;1783740;79;21121;-51
2021/06/09 03:59:05;;;;;;;7.72;6.83;;;;;;;21.79;71.38;99317.29;1780939;79;20878;-54
2021/06/09 04:01:39;;;;;;;8.10;6.40;;;;;;;21.85;70.77;99315.27;1755994;79;20902;-53
2021/06/09 04:04:05;;;;;;;8.55;7.10;;;;;;;22.00;69.58;99315.56;1753005;80;21444;-52
2021/06/09 04:06:33;;;;;;;10.08;6.35;;;;;;;21.96;70.59;99321.88;1777952;80;20921;-55
2021/06/09 04:09:01;;;;;;;9.00;7.17;;;;;;;22.22;70.60;99319.17;1763541;80;21746;-54
2021/06/09 04:11:28;;;;;;;9.30;7.42;;;;;;;22.56;68.53;99327.08;1780795;78;20909;-54
2021/06/09 04:13:56;;;;;;;9.10;7.58;;;;;;;22.74;68.02;99319.59;1754913;80;21449;-51
2021/06/09 04:16:26;;;;;;;6.67;5.87;;;;;;;22.90;66.09;99323.81;1766880;79;20883;-53
2021/06/09 04:18:53;;;;;;;8.58;6.55;;;;;;;22.93;65.80;99326.23;1754648;78;20939;-53
2021/06/09 04:21:20;;;;;;;9.45;7.00;;;;;;;22.95;66.27;99324.17;1762510;79;21030;-53
2021/06/09 04:23:47;;;;;;;7.83;6.28;;;;;;;23.08;66.39;99324.23;1772407;79;20982;-52
2021/06/09 04:26:16;;;;;;;8.68;6.20;;;;;;;23.22;65.68;99330.44;1765540;79;20903;-50
2021/06/09 04:28:43;;;;;;;7.00;6.30;;;;;;;23.26;65.60;99324.44;1773502;78;20951;-51
2021/06/09 04:31:13;;;;;;;7.30;5.97;;;;;;;23.30;65.44;99324.97;1772248;78;20926;-52
2021/06/09 04:33:40;;;;;;;9.73;6.00;;;;;;;23.30;64.94;99329.09;1774098;79;21461;-53
2021/06/09 04:36:14;;;;;;;13.10;6.75;;;;;;;23.16;64.42;99317.36;1770203;79;20938;-53
2021/06/09 04:38:41;;;;;;;6.30;5.67;;;;;;;23.07;64.94;99322.00;1773325;78;20907;-52
2021/06/09 04:41:09;;;;;;;8.98;6.22;;;;;;;23.12;65.14;99316.85;1773447;78;20907;-52
2021/06/09 04:43:37;;;;;;;7.12;5.87;;;;;;;23.15;65.03;99315.64;1774490;78;20907;-53
2021/06/09 04:46:04;;;;;;;6.55;5.75;;;;;;;23.19;64.87;99310.16;1771364;78;21637;-53
2021/06/09 04:48:31;;;;;;;7.22;6.47;;;;;;;23.09;64.99;99317.69;1770009;78;20914;-52
2021/06/09 04:50:57;;;;;;;8.90;6.62;;;;;;;22.77;66.06;99315.15;1770806;78;21623;-54
2021/06/09 04:53:24;;;;;;;7.58;6.75;;;;;;;22.43;66.81;99316.03;1773861;78;20990;-53
2021/06/09 04:55:53;;;;;;;7.83;6.55;;;;;;;22.06;68.25;99312.68;1768050;79;20962;-55
2021/06/09 04:58:23;;;;;;;7.25;6.55;;;;;;;21.63;70.26;99311.66;1768571;78;21590;-49
2021/06/09 05:00:50;;;;;;;15.80;8.38;;;;;;;21.29;71.35;99312.33;1771757;78;21003;-55
2021/06/09 05:03:17;;;;;;;7.78;7.05;;;;;;;21.07;72.05;99316.90;1769552;78;20883;-53
2021/06/09 05:05:44;;;;;;;8.90;7.03;;;;;;;20.81;72.79;99308.03;1768370;78;21653;-52
2021/06/09 05:08:11;;;;;;;9.85;8.28;;;;;;;20.58;73.66;99320.44;1770025;78;20961;-52
2021/06/09 05:10:39;;;;;;;8.13;7.28;;;;;;;20.34;75.20;99323.15;1772414;78;21759;-52
2021/06/09 05:13:18;;;;;;;8.70;7.60;;;;;;;20.13;76.60;99319.76;1768086;79;20974;-52
2021/06/09 05:15:51;;;;;;;12.00;7.47;;;;;;;19.94;77.44;99323.94;1773950;78;20943;-54
2021/06/09 05:18:25;;;;;;;10.60;7.00;;;;;;;19.85;77.51;99318.31;1770599;78;20974;-57
2021/06/09 05:20:52;;;;;;;9.55;7.90;;;;;;;19.82;77.62;99329.58;1772121;78;20947;-53
2021/06/09 05:23:27;;;;;;;13.05;10.40;;;;;;;19.79;78.32;99323.52;1772174;79;21797;-53
2021/06/09 05:25:55;;;;;;;8.98;6.25;;;;;;;19.74;78.77;99326.69;1773846;79;21638;-53
2021/06/09 05:28:25;;;;;;;7.05;6.35;;;;;;;19.77;78.91;99331.02;1769779;78;22006;-54
2021/06/09 05:30:54;;;;;;;9.63;6.70;;;;;;;19.78;78.28;99325.39;1768105;78;20934;-54
2021/06/09 05:33:21;;;;;;;9.45;7.20;;;;;;;19.82;78.19;99329.58;1769540;78;21137;-52
2021/06/09 05:35:54;;;;;;;8.70;7.33;;;;;;;19.87;78.23;99327.27;1769057;79;21649;-52
2021/06/09 05:38:22;;;;;;;9.08;7.22;;;;;;;20.00;78.29;99321.46;1768972;78;20907;-53
2021/06/09 05:40:49;;;;;;;9.25;6.90;;;;;;;20.27;77.52;99322.03;1772412;79;21546;-55
2021/06/09 05:43:22;;;;;;;7.05;6.22;;;;;;;20.64;76.98;99325.30;1770955;78;21014;-54
2021/06/09 05:45:49;;;;;;;5.85;5.35;;;;;;;21.06;74.92;99331.63;1770839;78;21471;-55
2021/06/09 05:48:16;;;;;;;6.83;5.90;;;;;;;21.27;72.54;99336.32;1769990;78;21120;-57
2021/06/09 05:50:52;;;;;;;9.20;8.10;;;;;;;21.53;71.53;99331.47;1771288;78;21527;-54
2021/06/09 05:53:21;;;;;;;6.60;5.95;;;;;;;21.78;70.69;99341.61;1750199;79;21692;-56
2021/06/09 05:55:49;;;;;;;6.90;5.40;;;;;;;22.13;69.44;99335.75;1747948;79;20907;-56
2021/06/09 05:58:18;;;;;;;6.65;5.35;;;;;;;22.67;67.60;99333.66;1773443;78;20980;-55
2021/06/09 06:00:48;;;;;;;5.55;4.25;;;;;;;23.09;65.96;99335.58;1771601;78;21495;-54
2021/06/09 06:03:14;;;;;;;4.58;4.10;;;;;;;23.46;62.72;99337.37;1770111;78;20929;-55
2021/06/09 06:05:42;;;;;;;7.28;4.12;;;;;;;23.78;61.84;99331.59;1772810;78;21551;-52
2021/06/09 06:08:09;;;;;;;7.45;4.10;;;;;;;24.17;59.91;99333.62;1769539;78;21360;-53
2021/06/09 06:10:36;;;;;;;4.15;3.75;;;;;;;24.26;58.77;99332.58;1769894;78;21022;-53
2021/06/09 06:13:03;;;;;;;7.10;4.00;;;;;;;24.35;58.87;99334.32;1769262;78;21430;-55
2021/06/09 06:15:30;;;;;;;5.40;4.25;;;;;;;24.67;57.97;99332.52;1771106;78;21461;-54
2021/06/09 06:17:57;;;;;;;6.80;4.80;;;;;;;24.94;57.56;99333.42;1767934;78;20955;-54
2021/06/09 06:20:24;;;;;;;5.25;3.98;;;;;;;25.27;57.16;99330.52;1771078;79;20926;-54
2021/06/09 06:22:52;;;;;;;5.12;4.28;;;;;;;25.73;55.53;99329.18;1769745;78;21048;-53
2021/06/09 06:25:23;;;;;;;5.12;4.20;;;;;;;25.80;54.64;99332.94;1768943;78;21821;-53
2021/06/09 06:27:51;;;;;;;;;;;;;;;25.72;55.25;99332.96;1773710;78;20926;-53
2021/06/09 06:30:20;;;;;;;5.70;5.12;;;;;;;25.55;56.31;99327.56;1765842;78;20162;-56
2021/06/09 06:32:50;;;;;;;5.97;4.78;;;;;;;25.45;56.09;99326.94;1766590;78;20940;-56
2021/06/09 06:35:21;;;;;;;8.00;5.17;;;;;;;25.36;56.50;99334.11;1766817;78;21006;-55
2021/06/09 06:37:49;;;;;;;5.60;4.47;;;;;;;25.32;56.31;99332.22;1764755;78;22181;-53
2021/06/09 06:40:22;;;;;;;6.37;4.78;;;;;;;25.45;55.08;99329.70;1761094;80;20994;-55
2021/06/09 06:42:51;;;;;;;4.03;3.72;;;;;;;25.77;54.08;99338.82;1771200;79;21007;-56
2021/06/09 06:45:18;;;;;;;5.03;4.53;;;;;;;25.98;53.43;99340.37;1764536;78;21002;-58
2021/06/09 06:47:45;;;;;;;7.25;4.78;;;;;;;26.25;53.39;99338.05;1764258;79;20982;-54
2021/06/09 06:50:14;;;;;;;5.72;4.25;;;;;;;26.62;51.44;99339.41;1763987;78;21379;-56
2021/06/09 06:52:43;;;;;;;4.67;4.28;;;;;;;26.73;49.92;99339.98;1762642;78;21035;-55
2021/06/09 06:55:10;;;;;;;4.60;4.20;;;;;;;26.67;50.62;99343.52;1765971;78;20874;-55
2021/06/09 06:57:37;;;;;;;4.92;4.40;;;;;;;26.55;51.04;99345.37;1767557;78;20927;-54
2021/06/09 07:00:09;;;;;;;10.32;4.75;;;;;;;26.21;52.23;99343.64;1766531;78;21451;-56
2021/06/09 07:02:36;;;;;;;6.10;4.87;;;;;;;25.90;52.46;99341.84;1769789;78;21763;-55
2021/06/09 07:05:04;;;;;;;5.50;5.00;;;;;;;25.77;52.95;99327.77;1766040;78;20891;-58
2021/06/09 07:07:35;;;;;;;7.33;4.50;;;;;;;25.72;53.52;99330.20;1773437;78;20966;-58
2021/06/09 07:10:04;;;;;;;6.83;5.17;;;;;;;25.49;53.50;99335.73;1764552;78;20942;-58
2021/06/09 07:12:31;;;;;;;7.83;5.58;;;;;;;25.15;54.29;99330.60;1771567;78;21416;-59
2021/06/09 07:14:58;;;;;;;6.28;5.20;;;;;;;24.63;55.43;99333.89;1766775;78;21479;-59
2021/06/09 07:17:25;;;;;;;9.38;6.30;;;;;;;24.45;56.05;99334.99;1739213;80;20958;-58
2021/06/09 07:19:52;;;;;;;6.50;5.90;;;;;;;24.22;56.54;99328.45;1738640;79;21371;-57
2021/06/09 07:22:19;;;;;;;7.00;5.20;;;;;;;24.05;57.51;99335.36;1768038;78;21065;-58
2021/06/09 07:24:46;;;;;;;6.15;5.08;;;;;;;23.89;58.10;99331.23;1766841;78;21504;-58
2021/06/09 07:27:13;;;;;;;7.65;5.78;;;;;;;23.61;58.85;99336.20;1768545;78;21495;-59
2021/06/09 07:29:40;;;;;;;6.08;5.53;;;;;;;23.38;59.59;99335.97;1767287;79;20966;-55
2021/06/09 07:32:08;;;;;;;9.10;5.45;;;;;;;23.18;60.35;99331.83;1767650;78;20939;-58
2021/06/09 07:34:34;;;;;;;5.83;5.22;;;;;;;23.06;60.99;99331.77;1766690;78;21124;-55
2021/06/09 07:37:07;;;;;;;7.10;5.70;;;;;;;23.10;60.97;99329.03;1765964;78;21004;-52
2021/06/09 07:39:45;;;;;;;6.10;5.45;;;;;;;22.99;61.61;99331.06;1767131;78;21068;-57
2021/06/09 07:42:14;;;;;;;6.60;4.92;;;;;;;22.89;61.96;99327.59;1765778;78;20892;-54
2021/06/09 07:44:51;;;;;;;9.13;5.12;;;;;;;22.84;61.57;99331.32;1765395;79;21921;-56
2021/06/09 07:47:18;;;;;;;5.67;4.95;;;;;;;22.79;61.40;99335.59;1748980;79;21013;-53
2021/06/09 07:49:48;;;;;;;10.65;5.37;;;;;;;22.77;60.85;99326.14;1767101;78;20967;-56
2021/06/09 07:52:16;;;;;;;5.92;5.33;;;;;;;22.78;61.46;99319.61;1768823;78;21826;-52
2021/06/09 07:54:45;;;;;;;6.42;5.15;;;;;;;22.74;61.80;99325.09;1765268;79;20914;-55
2021/06/09 07:57:11;;;;;;;5.47;4.33;;;;;;;22.71;61.51;99340.55;1766917;79;21032;-54
2021/06/09 07:59:39;;;;;;;8.33;5.33;;;;;;;22.68;60.91;99342.25;1764871;78;21021;-60
2021/06/09 08:02:06;;;;;;;6.05;5.22;;;;;;;22.56;61.59;99345.80;1738443;79;21634;-62
2021/06/09 08:04:33;;;;;;;6.47;5.00;;;;;;;22.42;62.47;99336.27;1765613;79;21125;-62
2021/06/09 08:07:00;;;;;;;9.48;6.17;;;;;;;22.34;62.94;99338.98;1773897;79;20989;-61
2021/06/09 08:09:29;;;;;;;7.08;5.28;;;;;;;22.26;63.42;99336.69;1766922;78;20919;-61
2021/06/09 08:11:56;;;;;;;5.42;4.87;;;;;;;22.26;63.70;99341.66;1754796;79;21011;-62
2021/06/09 08:14:22;;;;;;;5.33;4.83;;;;;;;22.21;63.05;99335.79;1737561;80;21018;-61
2021/06/09 08:16:50;;;;;;;9.53;4.58;;;;;;;22.17;62.99;99329.78;1766840;80;22251;-61
2021/06/09 08:19:17;;;;;;;4.22;3.92;;;;;;;22.17;63.56;99334.41;1763488;78;21602;-60
2021/06/09 08:21:48;;;;;;;7.87;3.85;;;;;;;22.24;63.22;99349.22;1765866;79;21933;-50
2021/06/09 08:24:15;;;;;;;5.28;4.55;;;;;;;22.29;61.22;99344.10;1765019;78;20938;-53
2021/06/09 08:26:43;;;;;;;5.55;4.20;;;;;;;22.30;61.18;99337.58;1768183;79;20927;-51
2021/06/09 08:29:11;;;;;;;4.83;4.20;;;;;;;22.33;61.73;99345.51;1767995;78;21086;-50
2021/06/09 08:31:38;;;;;;;5.95;4.05;;;;;;;22.30;62.32;99343.07;1743858;79;21027;-52
2021/06/09 08:34:07;;;;;;;5.92;4.33;;;;;;;22.28;62.40;99345.13;1773395;78;20928;-60
2021/06/09 08:36:34;;;;;;;5.97;4.20;;;;;;;22.28;62.13;99347.88;1768377;79;21574;-61
2021/06/09 08:39:03;;;;;;;6.78;4.78;;;;;;;22.23;61.87;99344.75;1769888;79;20993;-61
2021/06/09 08:41:34;;;;;;;4.65;4.25;;;;;;;22.21;62.21;99337.16;1769255;78;21136;-55
2021/06/09 08:44:02;;;;;;;9.10;5.87;;;;;;;22.21;61.91;99344.03;1769586;79;20922;-55
2021/06/09 08:46:30;;;;;;;6.55;3.87;;;;;;;22.24;62.31;99338.23;1767986;78;21337;-54
2021/06/09 08:48:57;;;;;;;4.22;3.65;;;;;;;22.29;61.45;99348.22;1743939;79;21038;-53
2021/06/09 08:51:25;;;;;;;4.12;3.72;;;;;;;22.28;60.78;99341.02;1768922;78;20974;-54
2021/06/09 08:53:53;;;;;;;7.87;5.33;;;;;;;22.29;61.27;99348.22;1772179;78;21809;-52
2021/06/09 08:56:21;;;;;;;6.53;4.58;;;;;;;22.31;61.74;99346.16;1771247;79;21033;-52
2021/06/09 08:58:48;;;;;;;6.28;4.45;;;;;;;22.32;61.42;99343.80;1768936;78;21885;-51
2021/06/09 09:01:15;;;;;;;4.22;3.83;;;;;;;22.31;61.01;99336.55;1772148;78;21073;-53
2021/06/09 09:03:44;;;;;;;6.15;4.80;;;;;;;22.31;61.18;99344.79;1770177;79;21457;-52
2021/06/09 09:06:11;;;;;;;5.03;4.53;;;;;;;22.36;61.19;99345.16;1770172;79;21137;-56
2021/06/09 09:08:38;;;;;;;5.40;4.25;;;;;;;22.38;60.46;99336.27;1768897;78;20935;-51
2021/06/09 09:11:05;;;;;;;4.55;4.15;;;;;;;22.37;60.12;99335.92;1768215;78;21054;-52
2021/06/09 09:13:32;;;;;;;6.03;4.03;;;;;;;22.37;59.58;99331.80;1771722;78;20971;-52
2021/06/09 09:16:00;;;;;;;6.30;4.20;;;;;;;22.38;60.10;99341.77;1770984;78;21067;-50
2021/06/09 09:18:45;;;;;;;5.12;3.95;;;;;;;22.41;59.59;99326.30;1770476;78;21096;-53
2021/06/09 09:21:14;;;;;;;7.33;4.05;;;;;;;22.45;58.96;99327.71;1770323;79;20894;-52
2021/06/09 09:23:47;;;;;;;6.35;3.80;;;;;;;22.48;58.19;99331.52;1762462;78;20994;-52
2021/06/09 09:26:34;;;;;;;7.25;4.20;;;;;;;22.55;57.70;99332.23;1767211;78;20963;-53
2021/06/09 09:29:20;;;;;;;3.58;3.22;;;;;;;22.60;58.09;99313.36;1772826;78;21075;-51
2021/06/09 09:31:59;;;;;;;7.15;3.72;;;;;;;22.65;57.23;99323.35;1778611;78;21808;-53
2021/06/09 09:34:43;;;;;;;4.60;4.20;;;;;;;22.70;57.39;99314.09;1770070;78;20891;-51
2021/06/09 09:37:20;;;;;;;5.12;3.72;;;;;;;22.72;56.78;99304.64;1774937;78;21472;-52
2021/06/09 09:39:51;;;;;;;4.45;3.45;;;;;;;22.76;56.53;99296.94;1767094;78;21001;-53
2021/06/09 09:42:26;;;;;;;4.65;4.10;;;;;;;22.80;55.89;99296.06;1768874;79;20919;-53
2021/06/09 09:44:53;;;;;;;3.50;3.20;;;;;;;22.81;55.21;99293.17;1767992;79;21796;-53
2021/06/09 09:47:23;;;;;;;3.80;3.12;;;;;;;22.85;55.06;99292.30;1769971;79;20966;-53
2021/06/09 09:49:51;;;;;;;5.55;3.60;;;;;;;22.86;54.81;99283.91;1778532;78;20982;-52
2021/06/09 09:52:18;;;;;;;5.35;3.08;;;;;;;22.93;54.29;99289.63;1773346;79;21412;-52
2021/06/09 09:54:45;;;;;;;5.55;4.00;;;;;;;22.96;52.96;99290.16;1773092;79;20950;-51
2021/06/09 09:57:14;;;;;;;3.75;3.35;;;;;;;23.02;52.95;99287.77;1769814;78;21791;-52
2021/06/09 09:59:41;;;;;;;3.50;3.20;;;;;;;23.05;52.19;99281.92;1768161;79;21539;-52
2021/06/09 10:02:17;;;;;;;4.72;4.17;;;;;;;23.09;52.61;99284.69;1770098;78;20923;-51
2021/06/09 10:04:52;;;;;;;3.70;3.05;;;;;;;23.15;52.34;99281.25;1772409;78;20922;-52
2021/06/09 10:07:16;;;;;;;3.60;3.30;;;;;;;23.23;51.50;99279.91;1767647;79;20933;-52
2021/06/09 10:09:44;;;;;;;3.17;2.90;;;;;;;23.33;50.92;99277.86;1766678;78;21796;-53
2021/06/09 10:12:16;;;;;;;5.70;2.92;;;;;;;23.39;50.40;99271.67;1771808;78;21022;-58
2021/06/09 10:14:50;;;;;;;3.50;3.05;;;;;;;23.44;49.73;99281.66;1771044;78;20970;-58
2021/06/09 10:17:19;;;;;;;4.10;2.50;;;;;;;23.46;48.62;99272.69;1768782;78;21456;-57
2021/06/09 10:19:54;;;;;;;8.00;4.95;;;;;;;23.46;47.56;99269.94;1769323;78;21383;-58
2021/06/09 10:22:30;;;;;;;2.83;2.42;;;;;;;23.45;47.06;99270.98;1771460;79;21128;-58
2021/06/09 10:25:02;;;;;;;2.90;2.60;;;;;;;23.47;47.30;99259.79;1768604;78;21435;-58
2021/06/09 10:27:51;;;;;;;6.45;3.10;;;;;;;23.53;47.19;99254.45;1773540;78;21053;-58
2021/06/09 10:30:24;;;;;;;3.90;2.55;;;;;;;23.62;47.29;99254.45;1768813;78;21566;-57
2021/06/09 10:32:58;;;;;;;4.05;2.65;;;;;;;23.76;46.11;99252.42;1771989;78;20883;-55
2021/06/09 10:35:28;;;;;;;2.80;2.20;;;;;;;23.81;45.25;99255.52;1772886;78;21093;-51
2021/06/09 10:37:55;;;;;;;2.20;2.10;;;;;;;23.83;41.68;99260.33;1768871;79;20946;-51
2021/06/09 10:40:26;;;;;;;3.10;2.52;;;;;;;23.83;42.95;99256.72;1768373;79;20958;-52
2021/06/09 10:42:55;;;;;;;4.62;2.60;;;;;;;23.83;42.35;99257.57;1774365;78;20919;-52
2021/06/09 10:45:24;;;;;;;;;;;;;;;23.81;43.07;99244.50;1752506;79;20983;-52
2021/06/09 10:47:57;;;;;;;2.98;2.37;;;;;;;23.81;43.50;99262.41;1773255;78;21070;-53
2021/06/09 10:50:24;;;;;;;3.42;2.98;;;;;;;23.82;44.09;99262.74;1773148;78;20950;-58
2021/06/09 10:52:51;;;;;;;4.87;2.75;;;;;;;23.85;44.38;99251.36;1774883;78;20949;-59
2021/06/09 10:55:18;;;;;;;6.85;3.15;;;;;;;23.87;44.62;99269.97;1747953;79;21003;-58
2021/06/09 10:57:45;;;;;;;4.70;3.00;;;;;;;23.93;44.40;99269.27;1760665;79;21336;-58
2021/06/09 11:00:14;;;;;;;6.08;3.25;;;;;;;23.97;44.28;99251.36;1754731;79;21153;-55
2021/06/09 11:02:42;;;;;;;8.73;3.35;;;;;;;23.95;44.95;99234.13;1784034;79;21077;-55
2021/06/09 11:05:11;;;;;;;5.90;3.42;;;;;;;24.01;45.41;99247.20;1787181;78;20866;-54
2021/06/09 11:07:45;;;;;;;5.97;3.15;;;;;;;24.02;44.23;99246.67;1788292;78;20922;-51
2021/06/09 11:10:19;;;;;;;3.83;3.20;;;;;;;24.02;45.00;99237.92;1783998;78;21158;-58
2021/06/09 11:12:49;;;;;;;4.37;3.47;;;;;;;24.05;45.15;99240.30;1776352;78;21158;-58
2021/06/09 11:15:17;;;;;;;3.33;3.02;;;;;;;24.04;45.81;99222.06;1785352;78;20888;-58
2021/06/09 11:17:48;;;;;;;3.80;3.47;;;;;;;24.07;46.60;99233.75;1783620;79;20914;-58
2021/06/09 11:20:30;;;;;;;4.85;3.35;;;;;;;24.08;46.79;99223.10;1784896;78;20950;-52
2021/06/09 11:23:04;;;;;;;3.75;3.40;;;;;;;24.03;47.14;99221.73;1772861;78;20931;-52
2021/06/09 11:25:43;;;;;;;4.53;3.85;;;;;;;23.99;47.42;99224.48;1782002;78;21112;-53
2021/06/09 11:28:19;;;;;;;7.28;4.05;;;;;;;23.90;47.84;99214.52;1782493;78;20984;-53
2021/06/09 11:30:58;;;;;;;4.20;3.80;;;;;;;23.80;48.69;99208.34;1781801;77;21014;-52
2021/06/09 11:33:51;;;;;;;5.45;3.75;;;;;;;23.73;49.15;99218.34;1779857;78;21030;-51
2021/06/09 11:36:25;;;;;;;7.47;4.00;;;;;;;23.68;49.91;99216.63;1750718;77;21041;-52
2021/06/09 11:39:05;;;;;;;4.55;4.15;;;;;;;23.64;51.14;99209.22;1780021;78;21580;-52
2021/06/09 11:41:41;;;;;;;5.15;4.65;;;;;;;23.65;52.01;99218.34;1785889;78;21573;-52
2021/06/09 11:44:29;;;;;;;4.80;4.03;;;;;;;23.65;52.30;99223.84;1777729;78;21079;-53
2021/06/09 11:47:27;;;;;;;5.75;4.25;;;;;;;23.66;52.46;99210.45;1783876;78;20890;-53
2021/06/09 11:50:26;;;;;;;10.18;3.72;;;;;;;23.62;53.02;99207.66;1779521;78;20899;-51
2021/06/09 11:53:12;;;;;;;4.80;4.08;;;;;;;23.61;53.21;99203.19;1789064;79;21106;-53
2021/06/09 11:55:30;;;;;;;5.87;4.53;;;;;;;23.65;54.36;99196.31;1784126;78;21041;-54
2021/06/09 11:58:11;;;;;;;4.70;3.80;;;;;;;23.75;53.90;99188.72;1757285;80;21506;-53